Time,TemperatureF,DewpointF,PressureIn,WindDirection,WindDirectionDegrees,WindSpeedMPH,WindSpeedGustMPH,Humidity,HourlyPrecipIn,Conditions,Clouds,dailyrainin,SoftwareType,DateUTC
2013-03-17 00:03:00,67.0,55.0,30.16,SE,136,8.0,13.0,65,0.00,,,0.00,,2013-03-17 04:03:00,
2013-03-17 00:13:00,67.0,55.0,30.16,SE,136,8.0,13.0,65,0.00,,,0.00,,2013-03-17 04:13:00,
2013-03-17 00:23:00,67.0,56.0,30.16,WSW,246,1.0,5.0,69,0.00,,,0.00,,2013-03-17 04:23:00,
2013-03-17 00:33:00,66.0,56.0,30.16,SW,235,2.0,4.0,71,0.00,,,0.00,,2013-03-17 04:33:00,
2013-03-17 00:43:00,66.0,56.0,30.16,SW,235,2.0,4.0,71,0.00,,,0.00,,2013-03-17 04:43:00,
2013-03-17 00:53:00,65.0,56.0,30.16,WSW,243,2.0,3.0,73,0.00,,,0.00,,2013-03-17 04:53:00,
2013-03-17 01:03:00,64.0,56.0,30.16,SW,233,2.0,4.0,74,0.00,,,0.00,,2013-03-17 05:03:00,
2013-03-17 01:12:00,64.0,56.0,30.16,SW,233,2.0,4.0,74,0.00,,,0.00,,2013-03-17 05:12:00,
2013-03-17 01:22:00,63.0,55.0,30.15,WSW,256,1.0,4.0,74,0.00,,,0.00,,2013-03-17 05:22:00,
2013-03-17 01:32:00,63.0,55.0,30.15,West,259,1.0,3.0,75,0.00,,,0.00,,2013-03-17 05:32:00,
2013-03-17 01:42:00,63.0,55.0,30.15,West,259,1.0,3.0,75,0.00,,,0.00,,2013-03-17 05:42:00,
2013-03-17 01:52:00,63.0,55.0,30.15,WSW,256,2.0,3.0,76,0.00,,,0.00,,2013-03-17 05:52:00,
2013-03-17 02:02:00,63.0,56.0,30.14,West,271,1.0,2.0,77,0.00,,,0.00,,2013-03-17 06:02:00,
2013-03-17 02:12:00,63.0,56.0,30.14,West,271,1.0,2.0,77,0.00,,,0.00,,2013-03-17 06:12:00,
2013-03-17 02:22:00,62.0,55.0,30.14,WSW,253,1.0,3.0,77,0.00,,,0.00,,2013-03-17 06:22:00,
2013-03-17 02:32:00,62.0,55.0,30.14,West,264,0.0,1.0,78,0.00,,,0.00,,2013-03-17 06:32:00,
2013-03-17 02:42:00,62.0,55.0,30.14,West,264,0.0,1.0,78,0.00,,,0.00,,2013-03-17 06:42:00,
2013-03-17 02:52:00,62.0,55.0,30.13,West,262,0.0,2.0,78,0.00,,,0.00,,2013-03-17 06:52:00,
2013-03-17 03:02:00,62.0,55.0,30.13,West,262,0.0,2.0,78,0.00,,,0.00,,2013-03-17 07:02:00,
2013-03-17 03:12:00,62.0,55.0,30.13,West,262,0.0,2.0,78,0.00,,,0.00,,2013-03-17 07:12:00,
2013-03-17 03:22:00,61.0,55.0,30.12,WSW,257,1.0,3.0,80,0.00,,,0.00,,2013-03-17 07:22:00,
2013-03-17 03:32:00,61.0,55.0,30.12,WNW,297,1.0,2.0,80,0.00,,,0.00,,2013-03-17 07:32:00,
2013-03-17 03:42:00,61.0,55.0,30.12,WNW,297,1.0,2.0,80,0.00,,,0.00,,2013-03-17 07:42:00,
2013-03-17 03:52:00,61.0,55.0,30.12,WNW,297,1.0,3.0,80,0.00,,,0.00,,2013-03-17 07:52:00,
2013-03-17 04:03:00,62.0,56.0,30.11,WNW,302,2.0,4.0,80,0.00,,,0.00,,2013-03-17 08:03:00,
2013-03-17 04:13:00,62.0,56.0,30.11,WSW,252,1.0,3.0,80,0.00,,,0.00,,2013-03-17 08:13:00,
2013-03-17 04:22:00,62.0,56.0,30.11,WSW,252,1.0,3.0,80,0.00,,,0.00,,2013-03-17 08:22:00,
2013-03-17 04:33:00,62.0,55.0,30.12,NW,318,0.0,3.0,79,0.00,,,0.00,,2013-03-17 08:33:00,
2013-03-17 04:42:00,62.0,55.0,30.12,NW,318,0.0,3.0,79,0.00,,,0.00,,2013-03-17 08:42:00,
2013-03-17 04:52:00,62.0,55.0,30.11,WNW,297,0.0,3.0,79,0.00,,,0.00,,2013-03-17 08:52:00,
2013-03-17 05:03:00,62.0,55.0,30.12,NW,319,2.0,4.0,79,0.00,,,0.00,,2013-03-17 09:03:00,
2013-03-17 05:13:00,62.0,55.0,30.12,NW,319,2.0,4.0,79,0.00,,,0.00,,2013-03-17 09:13:00,
2013-03-17 05:22:00,62.0,55.0,30.11,NNW,347,2.0,6.0,78,0.00,,,0.00,,2013-03-17 09:22:00,
2013-03-17 05:32:00,62.0,55.0,30.11,NW,318,2.0,5.0,78,0.00,,,0.00,,2013-03-17 09:32:00,
2013-03-17 05:43:00,62.0,55.0,30.11,NW,318,2.0,5.0,78,0.00,,,0.00,,2013-03-17 09:43:00,
2013-03-17 05:53:00,63.0,56.0,30.11,WNW,284,1.0,2.0,78,0.00,,,0.00,,2013-03-17 09:53:00,
2013-03-17 06:03:00,63.0,56.0,30.12,WNW,300,1.0,3.0,78,0.00,,,0.00,,2013-03-17 10:03:00,
2013-03-17 06:13:00,63.0,56.0,30.12,WNW,300,1.0,3.0,78,0.00,,,0.00,,2013-03-17 10:13:00,
2013-03-17 06:23:00,63.0,56.0,30.11,WNW,294,2.0,3.0,78,0.00,,,0.00,,2013-03-17 10:23:00,
2013-03-17 06:33:00,63.0,56.0,30.12,NW,304,2.0,3.0,78,0.00,,,0.00,,2013-03-17 10:33:00,
2013-03-17 06:42:00,63.0,56.0,30.12,NW,304,2.0,3.0,78,0.00,,,0.00,,2013-03-17 10:42:00,
2013-03-17 06:52:00,63.0,56.0,30.12,NW,319,3.0,5.0,78,0.00,,,0.00,,2013-03-17 10:52:00,
2013-03-17 07:03:00,63.0,56.0,30.13,West,277,2.0,5.0,77,0.00,,,0.00,,2013-03-17 11:03:00,
2013-03-17 07:12:00,63.0,56.0,30.13,West,277,2.0,5.0,77,0.00,,,0.00,,2013-03-17 11:12:00,
2013-03-17 07:22:00,63.0,56.0,30.13,NW,312,2.0,3.0,78,0.00,,,0.00,,2013-03-17 11:22:00,
2013-03-17 07:32:00,63.0,56.0,30.12,WNW,300,2.0,3.0,78,0.00,,,0.00,,2013-03-17 11:32:00,
2013-03-17 07:42:00,63.0,56.0,30.12,WNW,300,2.0,3.0,78,0.00,,,0.00,,2013-03-17 11:42:00,
2013-03-17 07:52:00,63.0,56.0,30.13,NW,314,1.0,3.0,79,0.00,,,0.00,,2013-03-17 11:52:00,
2013-03-17 08:02:00,63.0,57.0,30.13,NW,308,0.0,2.0,80,0.00,,,0.00,,2013-03-17 12:02:00,
2013-03-17 08:12:00,63.0,57.0,30.13,NW,308,0.0,2.0,80,0.00,,,0.00,,2013-03-17 12:12:00,
2013-03-17 08:22:00,63.0,56.0,30.13,WNW,302,1.0,3.0,79,0.00,,,0.00,,2013-03-17 12:22:00,
2013-03-17 08:33:00,64.0,57.0,30.14,NNW,342,2.0,4.0,79,0.00,,,0.00,,2013-03-17 12:33:00,
2013-03-17 08:43:00,64.0,57.0,30.14,NNW,342,2.0,4.0,79,0.00,,,0.00,,2013-03-17 12:43:00,
2013-03-17 08:52:00,64.0,57.0,30.16,NW,311,2.0,4.0,78,0.00,,,0.00,,2013-03-17 12:52:00,
2013-03-17 09:02:00,64.0,57.0,30.16,NW,321,2.0,4.0,78,0.00,,,0.00,,2013-03-17 13:02:00,
2013-03-17 09:13:00,64.0,57.0,30.16,NW,321,2.0,4.0,78,0.00,,,0.00,,2013-03-17 13:13:00,
2013-03-17 09:22:00,64.0,57.0,30.16,WNW,301,1.0,4.0,77,0.00,,,0.00,,2013-03-17 13:22:00,
2013-03-17 09:32:00,65.0,57.0,30.17,WNW,295,1.0,3.0,76,0.00,,,0.00,,2013-03-17 13:32:00,
2013-03-17 09:43:00,65.0,57.0,30.17,WNW,295,1.0,3.0,76,0.00,,,0.00,,2013-03-17 13:43:00,
2013-03-17 09:52:00,67.0,58.0,30.17,NW,315,1.0,3.0,73,0.00,,,0.00,,2013-03-17 13:52:00,
2013-03-17 10:02:00,68.0,59.0,30.18,West,260,1.0,4.0,73,0.00,,,0.00,,2013-03-17 14:02:00,
2013-03-17 10:12:00,68.0,59.0,30.18,West,260,1.0,4.0,73,0.00,,,0.00,,2013-03-17 14:12:00,
2013-03-17 10:22:00,69.0,59.0,30.18,SW,219,0.0,2.0,71,0.00,,,0.00,,2013-03-17 14:22:00,
2013-03-17 10:33:00,69.0,58.0,30.18,WNW,285,0.0,3.0,69,0.00,,,0.00,,2013-03-17 14:33:00,
2013-03-17 10:42:00,69.0,58.0,30.18,WNW,285,0.0,3.0,69,0.00,,,0.00,,2013-03-17 14:42:00,
2013-03-17 10:52:00,71.0,59.0,30.18,SSE,148,6.0,10.0,65,0.00,,,0.00,,2013-03-17 14:52:00,
2013-03-17 11:02:00,71.0,59.0,30.18,SE,130,7.0,12.0,66,0.00,,,0.00,,2013-03-17 15:02:00,
2013-03-17 11:12:00,71.0,59.0,30.18,SE,130,7.0,12.0,66,0.00,,,0.00,,2013-03-17 15:12:00,
2013-03-17 11:23:00,71.0,59.0,30.17,SSE,150,8.0,14.0,66,0.00,,,0.00,,2013-03-17 15:23:00,
2013-03-17 11:33:00,71.0,59.0,30.17,SE,142,9.0,13.0,67,0.00,,,0.00,,2013-03-17 15:33:00,
2013-03-17 11:43:00,71.0,59.0,30.17,SE,142,9.0,13.0,67,0.00,,,0.00,,2013-03-17 15:43:00,
2013-03-17 11:53:00,72.0,61.0,30.17,SE,136,11.0,15.0,68,0.00,,,0.00,,2013-03-17 15:53:00,
2013-03-17 12:03:00,72.0,60.0,30.17,SSE,148,11.0,16.0,65,0.00,,,0.00,,2013-03-17 16:03:00,
2013-03-17 12:13:00,72.0,60.0,30.17,SSE,148,11.0,16.0,65,0.00,,,0.00,,2013-03-17 16:13:00,
2013-03-17 12:23:00,73.0,60.0,30.17,SSE,150,10.0,16.0,63,0.00,,,0.00,,2013-03-17 16:23:00,
2013-03-17 12:33:00,73.0,60.0,30.17,SSE,150,10.0,16.0,63,0.00,,,0.00,,2013-03-17 16:33:00,
2013-03-17 12:43:00,73.0,60.0,30.17,SSE,150,10.0,16.0,63,0.00,,,0.00,,2013-03-17 16:43:00,
2013-03-17 12:52:00,73.0,60.0,30.17,SSE,165,8.0,14.0,64,0.00,,,0.00,,2013-03-17 16:52:00,
2013-03-17 13:03:00,73.0,60.0,30.16,SE,135,10.0,16.0,63,0.00,,,0.00,,2013-03-17 17:03:00,
2013-03-17 13:12:00,73.0,60.0,30.16,SE,135,10.0,16.0,63,0.00,,,0.00,,2013-03-17 17:12:00,
2013-03-17 13:22:00,73.0,60.0,30.16,SE,138,10.0,14.0,63,0.00,,,0.00,,2013-03-17 17:22:00,
2013-03-17 13:33:00,73.0,59.0,30.16,SE,131,9.0,15.0,62,0.00,,,0.00,,2013-03-17 17:33:00,
2013-03-17 13:42:00,73.0,59.0,30.16,SE,131,9.0,15.0,62,0.00,,,0.00,,2013-03-17 17:42:00,
2013-03-17 13:52:00,74.0,60.0,30.15,SSW,207,11.0,16.0,62,0.00,,,0.00,,2013-03-17 17:52:00,
2013-03-17 14:02:00,74.0,59.0,30.15,SE,141,11.0,18.0,60,0.00,,,0.00,,2013-03-17 18:02:00,
2013-03-17 14:12:00,74.0,59.0,30.15,SE,141,11.0,18.0,60,0.00,,,0.00,,2013-03-17 18:12:00,
2013-03-17 14:22:00,74.0,59.0,30.15,SE,137,10.0,17.0,59,0.00,,,0.00,,2013-03-17 18:22:00,
2013-03-17 14:32:00,73.0,58.0,30.14,SE,136,12.0,16.0,60,0.00,,,0.00,,2013-03-17 18:32:00,
2013-03-17 14:42:00,73.0,58.0,30.14,SE,136,12.0,16.0,60,0.00,,,0.00,,2013-03-17 18:42:00,
2013-03-17 14:52:00,73.0,59.0,30.13,SE,141,10.0,15.0,61,0.00,,,0.00,,2013-03-17 18:52:00,
2013-03-17 15:02:00,74.0,59.0,30.12,SSE,162,12.0,17.0,59,0.00,,,0.00,,2013-03-17 19:02:00,
2013-03-17 15:12:00,74.0,59.0,30.12,SSE,162,12.0,17.0,59,0.00,,,0.00,,2013-03-17 19:12:00,
2013-03-17 15:22:00,74.0,59.0,30.12,SSE,162,12.0,17.0,59,0.00,,,0.00,,2013-03-17 19:22:00,
2013-03-17 15:33:00,74.0,61.0,30.11,SSE,168,10.0,14.0,64,0.00,,,0.00,,2013-03-17 19:33:00,
2013-03-17 15:42:00,74.0,61.0,30.11,SSE,168,10.0,14.0,64,0.00,,,0.00,,2013-03-17 19:42:00,
2013-03-17 15:53:00,73.0,60.0,30.10,SSE,167,11.0,16.0,63,0.00,,,0.00,,2013-03-17 19:53:00,
2013-03-17 16:02:00,74.0,60.0,30.09,SSE,161,10.0,15.0,61,0.00,,,0.00,,2013-03-17 20:02:00,
2013-03-17 16:12:00,74.0,60.0,30.09,SSE,161,10.0,15.0,61,0.00,,,0.00,,2013-03-17 20:12:00,
2013-03-17 16:22:00,74.0,60.0,30.09,SSE,150,9.0,16.0,62,0.00,,,0.00,,2013-03-17 20:22:00,
2013-03-17 16:33:00,73.0,60.0,30.09,SSE,160,13.0,18.0,63,0.00,,,0.00,,2013-03-17 20:33:00,
2013-03-17 16:42:00,73.0,60.0,30.09,SSE,160,13.0,18.0,63,0.00,,,0.00,,2013-03-17 20:42:00,
2013-03-17 16:52:00,73.0,60.0,30.09,SE,139,11.0,16.0,63,0.00,,,0.00,,2013-03-17 20:52:00,
2013-03-17 17:03:00,73.0,61.0,30.09,SSE,153,11.0,17.0,65,0.00,,,0.00,,2013-03-17 21:03:00,
2013-03-17 17:12:00,73.0,61.0,30.09,SSE,153,11.0,17.0,65,0.00,,,0.00,,2013-03-17 21:12:00,
2013-03-17 17:23:00,72.0,60.0,30.08,SE,141,11.0,17.0,66,0.00,,,0.00,,2013-03-17 21:23:00,
2013-03-17 17:33:00,72.0,60.0,30.08,SE,146,8.0,15.0,66,0.00,,,0.00,,2013-03-17 21:33:00,
2013-03-17 17:43:00,72.0,60.0,30.08,SE,146,8.0,15.0,66,0.00,,,0.00,,2013-03-17 21:43:00,
2013-03-17 17:52:00,72.0,60.0,30.09,SE,146,8.0,15.0,66,0.00,,,0.00,,2013-03-17 21:52:00,
2013-03-17 18:03:00,72.0,60.0,30.09,South,180,7.0,12.0,67,0.00,,,0.00,,2013-03-17 22:03:00,
2013-03-17 18:13:00,72.0,59.0,30.09,SSE,163,10.0,17.0,64,0.00,,,0.00,,2013-03-17 22:13:00,
2013-03-17 18:23:00,72.0,59.0,30.09,SSE,163,10.0,17.0,64,0.00,,,0.00,,2013-03-17 22:23:00,
2013-03-17 18:33:00,72.0,59.0,30.09,South,172,8.0,15.0,64,0.00,,,0.00,,2013-03-17 22:33:00,
2013-03-17 18:42:00,72.0,59.0,30.09,South,172,8.0,15.0,64,0.00,,,0.00,,2013-03-17 22:42:00,
2013-03-17 18:52:00,72.0,59.0,30.09,SSE,160,8.0,16.0,64,0.00,,,0.00,,2013-03-17 22:52:00,
2013-03-17 19:03:00,72.0,59.0,30.09,SSE,160,7.0,14.0,63,0.00,,,0.00,,2013-03-17 23:03:00,
2013-03-17 19:13:00,72.0,59.0,30.09,SSE,160,7.0,14.0,63,0.00,,,0.00,,2013-03-17 23:13:00,
2013-03-17 19:22:00,71.0,59.0,30.08,SSE,148,9.0,14.0,66,0.00,,,0.00,,2013-03-17 23:22:00,
2013-03-17 19:33:00,71.0,59.0,30.08,South,169,10.0,16.0,67,0.00,,,0.00,,2013-03-17 23:33:00,
2013-03-17 19:43:00,71.0,59.0,30.08,South,169,10.0,16.0,67,0.00,,,0.00,,2013-03-17 23:43:00,
2013-03-17 19:52:00,71.0,60.0,30.07,SSE,158,9.0,15.0,68,0.00,,,0.00,,2013-03-17 23:52:00,
2013-03-17 20:03:00,71.0,60.0,30.07,SSE,155,8.0,13.0,69,0.00,,,0.00,,2013-03-18 00:03:00,
2013-03-17 20:13:00,71.0,60.0,30.07,SSE,155,8.0,13.0,69,0.00,,,0.00,,2013-03-18 00:13:00,
2013-03-17 20:22:00,71.0,59.0,30.08,South,172,8.0,15.0,67,0.00,,,0.00,,2013-03-18 00:22:00,
2013-03-17 20:33:00,71.0,59.0,30.08,SSE,164,6.0,12.0,67,0.00,,,0.00,,2013-03-18 00:33:00,
2013-03-17 20:42:00,71.0,59.0,30.08,SSE,164,6.0,12.0,67,0.00,,,0.00,,2013-03-18 00:42:00,
2013-03-17 20:52:00,71.0,59.0,30.09,SSE,164,6.0,13.0,67,0.00,,,0.00,,2013-03-18 00:52:00,
2013-03-17 21:02:00,71.0,60.0,30.09,SW,221,8.0,11.0,69,0.00,,,0.00,,2013-03-18 01:02:00,
2013-03-17 21:12:00,71.0,60.0,30.09,SW,221,8.0,11.0,69,0.00,,,0.00,,2013-03-18 01:12:00,
2013-03-17 21:22:00,71.0,60.0,30.09,SSW,203,2.0,9.0,69,0.00,,,0.00,,2013-03-18 01:22:00,
2013-03-17 21:33:00,71.0,60.0,30.09,SE,140,8.0,15.0,69,0.00,,,0.00,,2013-03-18 01:33:00,
2013-03-17 21:42:00,71.0,60.0,30.09,SE,140,8.0,15.0,69,0.00,,,0.00,,2013-03-18 01:42:00,
2013-03-17 21:52:00,71.0,62.0,30.09,SSE,165,9.0,13.0,72,0.00,,,0.00,,2013-03-18 01:52:00,
2013-03-17 22:02:00,71.0,62.0,30.09,SSE,150,11.0,15.0,73,0.00,,,0.00,,2013-03-18 02:02:00,
2013-03-17 22:12:00,71.0,62.0,30.09,SSE,150,11.0,15.0,73,0.00,,,0.00,,2013-03-18 02:12:00,
2013-03-17 22:22:00,71.0,62.0,30.10,SE,144,9.0,13.0,74,0.00,,,0.00,,2013-03-18 02:22:00,
2013-03-17 22:32:00,71.0,62.0,30.11,SSE,148,9.0,13.0,73,0.00,,,0.00,,2013-03-18 02:32:00,
2013-03-17 22:42:00,71.0,62.0,30.11,SSE,148,9.0,13.0,73,0.00,,,0.00,,2013-03-18 02:42:00,
2013-03-17 22:52:00,71.0,62.0,30.11,SE,144,9.0,13.0,73,0.00,,,0.00,,2013-03-18 02:52:00,
2013-03-17 23:03:00,71.0,62.0,30.11,SSE,155,8.0,12.0,73,0.00,,,0.00,,2013-03-18 03:03:00,
2013-03-17 23:12:00,71.0,62.0,30.11,SSE,155,8.0,12.0,73,0.00,,,0.00,,2013-03-18 03:12:00,
2013-03-17 23:22:00,71.0,62.0,30.11,SE,142,9.0,12.0,73,0.00,,,0.00,,2013-03-18 03:22:00,
2013-03-17 23:33:00,71.0,62.0,30.11,SE,141,9.0,12.0,72,0.00,,,0.00,,2013-03-18 03:33:00,
2013-03-17 23:42:00,71.0,62.0,30.11,SE,141,9.0,12.0,72,0.00,,,0.00,,2013-03-18 03:42:00,
2013-03-17 23:53:00,71.0,62.0,30.11,SE,134,9.0,13.0,73,0.00,,,0.00,,2013-03-18 03:53:00,